Pagrindinis puslapis
METAR-TAF:

METAR-TAF

Oro uostai :

Kvala Terenganu, Malaizija

platuma: 05-22-53N, ilguma: 103-06-17E, Aukštis: 6 m

Dabartinis oras

Ataskaita buvo paskelbta 49 minutes, ne 00:00 UTC
Vėjas 2 kt nuo kintamojo kryptimis
Temperatūra 26°C
Drėgmė 89%
Slėgis 1011 hPa
Matomumas 10 km arba daugiau
Mažai debesys ne aukštis 1800 ft

METAR: WMKN 140000Z VRB02KT 9999 FEW018 26/24 Q1011

Laikas: 08:49 (00:49 UTC)

Prognozė

Ataskaita buvo paskelbta 1 valandą ir 49 minutes, ne 23:00 UTC
Prognozė galioja nuo 14 metu 00 UTC su 15 metu 00 UTC
Vėjas 3 kt nuo kintamojo kryptimis
Matomumas 10 km arba daugiau
Mažai debesys ne aukštis 1800 ft
Tapsmas
nuo 14 metu 04 UTC su 14 metu 05 UTC
Mažai debesys ne aukštis 1700 ft, Liūtiniai kamuoliniai debesys.
Tapsmas
nuo 14 metu 11 UTC su 14 metu 12 UTC
Mažai debesys ne aukštis 2200 ft

TAF: WMKN 132300Z 1400/1500 VRB03KT 9999 FEW018 BECMG 1404/1405 FEW017CB BECMG 1411/1412 FEW022

Orai ataskaitas ir orų prognozės (METAR, TAF).

turimą stotys yra geltonos ir raudonos taškus žemėlapyje.

Perkelti pele per norėdami pamatyti stoties vardą.

Tada spustelėkite, norėdami matyti oro stebėjimo ir prognozės.

Norėdami pakeisti žemėlapį: spustelėkite ant žalios mygtukų su juodo kryžiaus žemyn,; žalią mygtuką su brūkšneliu, jei norite nutolinti; arba žalių rodyklių gretimoms žemėlapius.


METAR-TAF: